Time;durP1;ratioP1;P1;durP2;ratioP2;P2;SDS_P1;SDS_P2;PMS_P1;PMS_P2;Temp;Humidity;BMP_temperature;BMP_pressure;BME280_temperature;BME280_humidity;BME280_pressure;Samples;Min_cycle;Max_cycle;Signal;HPM_P1;HPM_P2
2023/12/05 00:02:14;;;;;;;22.70;11.13;;;;;;;;;;10446767;28;20036;-80
2023/12/05 00:07:14;;;;;;;18.73;10.52;;;;;;;;;;10459629;28;20100;-80
2023/12/05 00:12:15;;;;;;;22.27;10.73;;;;;;;;;;10449480;28;20031;-78
2023/12/05 00:17:15;;;;;;;22.17;9.48;;;;;;;;;;10460326;28;20116;-79
2023/12/05 00:22:15;;;;;;;26.90;11.30;;;;;;;;;;10461814;28;20029;-78
2023/12/05 00:27:16;;;;;;;17.70;8.90;;;;;;;;;;10462480;28;20024;-81
2023/12/05 00:32:16;;;;;;;17.80;10.13;;;;;;;;;;10462680;28;20074;-80
2023/12/05 00:37:16;;;;;;;13.98;8.70;;;;;;;;;;10461286;28;20055;-79
2023/12/05 00:42:16;;;;;;;17.27;8.77;;;;;;;;;;10460858;28;20029;-80
2023/12/05 00:47:16;;;;;;;19.52;8.88;;;;;;;;;;10448455;28;20291;-80
2023/12/05 00:52:17;;;;;;;15.18;8.70;;;;;;;;;;10460302;28;20310;-80
2023/12/05 00:57:17;;;;;;;11.00;6.95;;;;;;;;;;10474539;28;20032;-79
2023/12/05 01:02:17;;;;;;;11.90;7.45;;;;;;;;;;10461830;28;20021;-79
2023/12/05 01:07:17;;;;;;;12.40;7.00;;;;;;;;;;10460924;28;20238;-81
2023/12/05 01:12:18;;;;;;;14.02;7.07;;;;;;;;;;10461502;28;20510;-80
2023/12/05 01:17:18;;;;;;;13.35;7.30;;;;;;;;;;10459275;28;20032;-79
2023/12/05 01:22:18;;;;;;;13.45;6.47;;;;;;;;;;10460750;28;20045;-80
2023/12/05 01:27:18;;;;;;;15.13;7.55;;;;;;;;;;10460948;28;20315;-79
2023/12/05 01:32:19;;;;;;;20.60;8.73;;;;;;;;;;10460492;28;20013;-80
2023/12/05 01:37:19;;;;;;;19.02;7.35;;;;;;;;;;10458735;28;20028;-80
2023/12/05 01:42:19;;;;;;;11.80;7.35;;;;;;;;;;10462717;28;20092;-80
2023/12/05 01:47:19;;;;;;;14.77;7.03;;;;;;;;;;10470040;28;20032;-78
2023/12/05 01:52:20;;;;;;;19.48;7.32;;;;;;;;;;10474217;28;20016;-81
2023/12/05 01:57:20;;;;;;;16.73;9.23;;;;;;;;;;10459808;28;20094;-79
2023/12/05 02:02:21;;;;;;;14.98;8.45;;;;;;;;;;10457246;28;20031;-80
2023/12/05 02:07:21;;;;;;;15.68;9.82;;;;;;;;;;10470045;28;20020;-79
2023/12/05 02:12:21;;;;;;;17.42;8.52;;;;;;;;;;10459077;28;20087;-78
2023/12/05 02:17:34;;;;;;;16.07;9.33;;;;;;;;;;10457328;28;20044;-79
2023/12/05 02:22:43;;;;;;;16.70;9.35;;;;;;;;;;10455564;28;20058;-79
2023/12/05 02:27:44;;;;;;;17.42;7.60;;;;;;;;;;10458558;28;20039;-80
2023/12/05 02:32:44;;;;;;;14.98;8.40;;;;;;;;;;10483769;28;20051;-80
2023/12/05 02:38:05;;;;;;;16.02;9.07;;;;;;;;;;10469107;28;20033;-80
2023/12/05 02:43:09;;;;;;;17.05;8.85;;;;;;;;;;10447055;28;20264;-78
2023/12/05 02:48:11;;;;;;;15.88;8.50;;;;;;;;;;10474130;28;20024;-79
2023/12/05 02:53:11;;;;;;;20.67;9.00;;;;;;;;;;10456667;28;20088;-78
2023/12/05 02:58:11;;;;;;;16.73;9.65;;;;;;;;;;10472887;28;20021;-78
2023/12/05 03:03:11;;;;;;;12.13;7.45;;;;;;;;;;10473106;28;20239;-78
2023/12/05 03:08:12;;;;;;;20.90;8.55;;;;;;;;;;10456756;28;20025;-78
2023/12/05 03:13:12;;;;;;;20.02;9.23;;;;;;;;;;10457579;28;20037;-80
2023/12/05 03:18:12;;;;;;;18.00;8.38;;;;;;;;;;10457478;28;20227;-78
2023/12/05 03:23:16;;;;;;;18.95;8.73;;;;;;;;;;10456173;28;20029;-79
2023/12/05 03:28:16;;;;;;;21.58;9.07;;;;;;;;;;10451994;28;20068;-79
2023/12/05 03:33:16;;;;;;;15.18;9.10;;;;;;;;;;10447069;28;20009;-79
2023/12/05 03:38:16;;;;;;;24.13;9.35;;;;;;;;;;10450601;28;20207;-79
2023/12/05 03:43:16;;;;;;;21.77;11.15;;;;;;;;;;10440919;28;20087;-79
2023/12/05 03:48:17;;;;;;;21.95;10.52;;;;;;;;;;10448914;28;20025;-80
2023/12/05 03:53:17;;;;;;;16.42;9.65;;;;;;;;;;10456671;28;20085;-80
2023/12/05 03:58:17;;;;;;;15.83;9.20;;;;;;;;;;10456907;28;20017;-78
2023/12/05 04:03:19;;;;;;;19.17;9.40;;;;;;;;;;10462789;28;20009;-80
2023/12/05 04:08:19;;;;;;;16.00;8.75;;;;;;;;;;10460355;28;20043;-80
2023/12/05 04:13:19;;;;;;;14.00;8.45;;;;;;;;;;10454255;28;20040;-79
2023/12/05 04:18:19;;;;;;;13.70;7.63;;;;;;;;;;10450885;28;20052;-80
2023/12/05 04:23:19;;;;;;;12.95;7.75;;;;;;;;;;10462329;28;20039;-81
2023/12/05 04:28:20;;;;;;;19.00;7.80;;;;;;;;;;10462613;28;20020;-80
2023/12/05 04:33:20;;;;;;;16.55;8.60;;;;;;;;;;10472920;28;20013;-81
2023/12/05 04:38:20;;;;;;;14.25;7.88;;;;;;;;;;10462817;28;20231;-81
2023/12/05 04:43:20;;;;;;;16.60;7.88;;;;;;;;;;10460686;28;20021;-81
2023/12/05 04:48:21;;;;;;;16.00;7.53;;;;;;;;;;10457653;28;20027;-80
2023/12/05 04:53:21;;;;;;;16.85;8.38;;;;;;;;;;10463137;28;20331;-81
2023/12/05 04:58:21;;;;;;;20.90;8.40;;;;;;;;;;10448683;28;20023;-80
2023/12/05 05:03:21;;;;;;;17.00;9.07;;;;;;;;;;10461661;28;20044;-80
2023/12/05 05:08:23;;;;;;;19.65;9.05;;;;;;;;;;10461736;28;20056;-79
2023/12/05 05:13:23;;;;;;;18.33;9.68;;;;;;;;;;10460630;28;20029;-78
2023/12/05 05:18:23;;;;;;;18.50;8.93;;;;;;;;;;10446021;28;20025;-77
2023/12/05 05:23:23;;;;;;;20.88;10.70;;;;;;;;;;10445326;28;20021;-80
2023/12/05 05:28:24;;;;;;;25.10;10.50;;;;;;;;;;10458435;28;20037;-79
2023/12/05 05:33:24;;;;;;;27.50;10.50;;;;;;;;;;10459459;28;20206;-79
2023/12/05 05:38:24;;;;;;;18.30;9.02;;;;;;;;;;10459288;28;20330;-79
2023/12/05 05:43:25;;;;;;;15.98;9.38;;;;;;;;;;10460648;28;20029;-79
2023/12/05 05:48:25;;;;;;;21.20;10.57;;;;;;;;;;10460750;28;20357;-79
2023/12/05 05:53:25;;;;;;;22.25;10.65;;;;;;;;;;10459649;28;20016;-80
2023/12/05 05:58:25;;;;;;;21.00;10.88;;;;;;;;;;10459305;28;20040;-80
2023/12/05 06:03:28;;;;;;;20.77;11.43;;;;;;;;;;10458897;28;20080;-80
2023/12/05 06:08:28;;;;;;;26.42;11.65;;;;;;;;;;10458339;28;20028;-77
2023/12/05 06:13:28;;;;;;;30.77;12.52;;;;;;;;;;10457821;28;20094;-79
2023/12/05 06:18:28;;;;;;;21.70;10.57;;;;;;;;;;10458178;28;20303;-80
2023/12/05 06:23:29;;;;;;;22.25;10.05;;;;;;;;;;10425270;28;20029;-78
2023/12/05 06:28:29;;;;;;;31.25;11.77;;;;;;;;;;10450190;28;20033;-79
2023/12/05 06:33:29;;;;;;;23.83;10.55;;;;;;;;;;10457684;28;20162;-80
2023/12/05 06:38:29;;;;;;;24.15;10.20;;;;;;;;;;10458253;28;20033;-81
2023/12/05 06:43:29;;;;;;;25.85;11.75;;;;;;;;;;10457821;28;20096;-79
2023/12/05 06:48:30;;;;;;;27.08;12.27;;;;;;;;;;10457678;28;20214;-81
2023/12/05 06:53:30;;;;;;;21.27;11.05;;;;;;;;;;10458010;28;20036;-79
2023/12/05 06:58:30;;;;;;;26.27;12.05;;;;;;;;;;10457264;28;20083;-80
2023/12/05 07:03:30;;;;;;;26.17;12.52;;;;;;;;;;10473471;28;20013;-80
2023/12/05 07:08:31;;;;;;;21.42;11.73;;;;;;;;;;10458495;28;20044;-81
2023/12/05 07:13:31;;;;;;;23.50;12.05;;;;;;;;;;10473993;28;20218;-79
2023/12/05 07:18:31;;;;;;;24.45;11.60;;;;;;;;;;10458368;28;20025;-80
2023/12/05 07:23:31;;;;;;;30.98;12.95;;;;;;;;;;10463154;28;20262;-81
2023/12/05 07:28:32;;;;;;;35.63;13.18;;;;;;;;;;10465209;28;20410;-81
2023/12/05 07:33:32;;;;;;;23.83;11.93;;;;;;;;;;10481298;28;20041;-80
2023/12/05 07:38:32;;;;;;;33.63;12.23;;;;;;;;;;10464717;28;20079;-81
2023/12/05 07:43:32;;;;;;;24.60;11.77;;;;;;;;;;10465371;28;20088;-81
2023/12/05 07:48:33;;;;;;;32.80;12.17;;;;;;;;;;10479875;28;20024;-81
2023/12/05 07:53:33;;;;;;;34.28;15.27;;;;;;;;;;10477352;28;20315;-80
2023/12/05 07:58:33;;;;;;;43.00;15.10;;;;;;;;;;10464157;28;20021;-79
2023/12/05 08:03:34;;;;;;;32.97;13.88;;;;;;;;;;10464556;28;20032;-79
2023/12/05 08:08:34;;;;;;;32.95;14.18;;;;;;;;;;10464057;28;20021;-80
2023/12/05 08:13:35;;;;;;;26.42;12.60;;;;;;;;;;10476791;28;20044;-80
2023/12/05 08:18:35;;;;;;;37.72;13.95;;;;;;;;;;10462772;28;20382;-80
2023/12/05 08:23:36;;;;;;;36.23;13.83;;;;;;;;;;10462909;28;20017;-79
2023/12/05 08:28:37;;;;;;;30.98;13.30;;;;;;;;;;10462982;28;20283;-80
2023/12/05 08:33:37;;;;;;;31.63;12.43;;;;;;;;;;10462613;28;20017;-82
2023/12/05 08:38:37;;;;;;;30.02;12.73;;;;;;;;;;10462427;28;20047;-81
2023/12/05 08:43:37;;;;;;;39.47;15.10;;;;;;;;;;10462373;28;20017;-81
2023/12/05 08:48:38;;;;;;;29.17;14.47;;;;;;;;;;10462284;28;20027;-80
2023/12/05 08:53:38;;;;;;;27.67;13.98;;;;;;;;;;10462053;28;20206;-81
2023/12/05 08:58:39;;;;;;;25.87;11.60;;;;;;;;;;10477624;28;20206;-80
2023/12/05 09:03:39;;;;;;;32.22;11.43;;;;;;;;;;10462272;28;20025;-79
2023/12/05 09:08:39;;;;;;;32.38;15.20;;;;;;;;;;10453770;28;20029;-80
2023/12/05 09:13:40;;;;;;;35.70;16.85;;;;;;;;;;10430813;28;20039;-81
2023/12/05 09:18:40;;;;;;;32.67;15.48;;;;;;;;;;10495890;28;20024;-80
2023/12/05 09:23:40;;;;;;;26.15;13.43;;;;;;;;;;10467139;28;20224;-80
2023/12/05 09:28:40;;;;;;;21.73;12.27;;;;;;;;;;10500857;28;20086;-80
2023/12/05 09:33:41;;;;;;;23.98;12.25;;;;;;;;;;10461053;28;20059;-80
2023/12/05 09:38:41;;;;;;;29.98;10.50;;;;;;;;;;10460313;28;20286;-80
2023/12/05 09:43:41;;;;;;;22.58;10.63;;;;;;;;;;10460082;28;20119;-79
2023/12/05 09:48:54;;;;;;;28.37;12.87;;;;;;;;;;10460675;28;20009;-79
2023/12/05 09:53:55;;;;;;;37.03;13.45;;;;;;;;;;10479275;28;20033;-79
2023/12/05 09:58:55;;;;;;;25.08;9.82;;;;;;;;;;10460150;28;20028;-79
2023/12/05 10:03:58;;;;;;;17.17;7.10;;;;;;;;;;10459588;28;20031;-80
2023/12/05 10:08:59;;;;;;;18.83;8.27;;;;;;;;;;10459068;28;20323;-79
2023/12/05 10:14:00;;;;;;;22.38;9.10;;;;;;;;;;10459332;28;20036;-79
2023/12/05 10:19:00;;;;;;;20.42;9.45;;;;;;;;;;10459371;28;20047;-80
2023/12/05 10:24:00;;;;;;;28.60;9.37;;;;;;;;;;10458696;28;20016;-79
2023/12/05 10:29:01;;;;;;;28.95;11.02;;;;;;;;;;10458583;28;20017;-79
2023/12/05 10:34:07;;;;;;;23.67;11.50;;;;;;;;;;10474033;28;20036;-79
2023/12/05 10:39:07;;;;;;;37.78;13.10;;;;;;;;;;10458659;28;20330;-81
2023/12/05 10:44:08;;;;;;;31.35;10.85;;;;;;;;;;10458624;28;20126;-80
2023/12/05 10:49:08;;;;;;;36.45;14.35;;;;;;;;;;10473117;28;20290;-80
2023/12/05 10:54:08;;;;;;;21.40;10.63;;;;;;;;;;10458098;28;20017;-80
2023/12/05 10:59:08;;;;;;;30.42;13.15;;;;;;;;;;10484676;28;20237;-79
2023/12/05 11:04:09;;;;;;;24.60;11.20;;;;;;;;;;10483229;28;20029;-80
2023/12/05 11:09:09;;;;;;;23.60;10.30;;;;;;;;;;10442397;28;20326;-78
2023/12/05 11:14:10;;;;;;;29.67;10.73;;;;;;;;;;10470898;28;20044;-78
2023/12/05 11:19:13;;;;;;;22.95;11.48;;;;;;;;;;10471015;28;20346;-79
2023/12/05 11:24:20;;;;;;;26.33;11.25;;;;;;;;;;10471178;28;20021;-78
2023/12/05 11:29:27;;;;;;;24.67;10.95;;;;;;;;;;10471308;28;20072;-79
2023/12/05 11:34:46;;;;;;;26.95;10.23;;;;;;;;;;10469785;28;20025;-79
2023/12/05 11:39:47;;;;;;;30.20;11.18;;;;;;;;;;10470804;28;20021;-78
2023/12/05 11:44:47;;;;;;;20.05;9.85;;;;;;;;;;10470443;28;20323;-80
2023/12/05 11:49:49;;;;;;;26.95;10.23;;;;;;;;;;10470458;28;20048;-81
2023/12/05 11:54:50;;;;;;;33.15;9.75;;;;;;;;;;10470374;28;20009;-80
2023/12/05 11:59:51;;;;;;;25.08;9.43;;;;;;;;;;10485717;28;20021;-80
2023/12/05 12:05:10;;;;;;;32.65;12.88;;;;;;;;;;10471170;28;20214;-80
2023/12/05 12:10:12;;;;;;;27.00;10.93;;;;;;;;;;10463372;28;20144;-80
2023/12/05 12:15:15;;;;;;;31.70;13.07;;;;;;;;;;10464030;28;20037;-79
2023/12/05 12:20:17;;;;;;;26.73;11.88;;;;;;;;;;10491733;28;20020;-81
2023/12/05 12:25:17;;;;;;;21.73;9.95;;;;;;;;;;10465051;28;20017;-78
2023/12/05 12:30:18;;;;;;;18.03;7.60;;;;;;;;;;10462673;28;20032;-79
2023/12/05 12:35:20;;;;;;;21.45;9.00;;;;;;;;;;10478483;28;20035;-80
2023/12/05 12:40:21;;;;;;;19.70;8.25;;;;;;;;;;10460839;28;20181;-80
2023/12/05 12:45:22;;;;;;;23.45;9.20;;;;;;;;;;10459287;28;20021;-80
2023/12/05 12:50:23;;;;;;;21.45;7.72;;;;;;;;;;10459083;28;20206;-80
2023/12/05 12:55:23;;;;;;;18.42;7.00;;;;;;;;;;10460707;28;20032;-78
2023/12/05 13:00:23;;;;;;;14.55;7.32;;;;;;;;;;10461862;28;20088;-81
2023/12/05 13:05:31;;;;;;;13.63;5.55;;;;;;;;;;10462036;28;20302;-79
2023/12/05 13:10:32;;;;;;;10.90;4.63;;;;;;;;;;10461992;28;20040;-80
2023/12/05 13:15:32;;;;;;;14.13;6.38;;;;;;;;;;10461858;28;20294;-80
2023/12/05 13:20:33;;;;;;;9.17;5.00;;;;;;;;;;10443504;28;20342;-80
2023/12/05 13:25:33;;;;;;;18.45;5.72;;;;;;;;;;10451915;28;20028;-79
2023/12/05 13:30:34;;;;;;;14.73;5.45;;;;;;;;;;10475885;28;20054;-79
2023/12/05 13:35:34;;;;;;;11.98;6.28;;;;;;;;;;10460321;28;20013;-80
2023/12/05 13:40:34;;;;;;;11.10;5.57;;;;;;;;;;10460073;28;20079;-79
2023/12/05 13:45:34;;;;;;;14.88;5.65;;;;;;;;;;10459894;28;20021;-78
2023/12/05 13:50:34;;;;;;;15.67;6.33;;;;;;;;;;10459796;28;20039;-79
2023/12/05 13:55:35;;;;;;;17.27;6.53;;;;;;;;;;10459331;28;20013;-79
2023/12/05 14:00:35;;;;;;;15.73;6.22;;;;;;;;;;10459050;28;20024;-79
2023/12/05 14:05:35;;;;;;;20.90;7.00;;;;;;;;;;10459587;28;20058;-79
2023/12/05 14:10:37;;;;;;;22.17;7.80;;;;;;;;;;10459457;28;20040;-80
2023/12/05 14:15:37;;;;;;;15.23;6.68;;;;;;;;;;10458441;28;20040;-78
2023/12/05 14:20:38;;;;;;;23.05;7.05;;;;;;;;;;10458921;28;20020;-78
2023/12/05 14:25:38;;;;;;;21.60;8.70;;;;;;;;;;10458642;28;20071;-79
2023/12/05 14:30:39;;;;;;;21.75;9.70;;;;;;;;;;10457743;28;20367;-78
2023/12/05 14:35:39;;;;;;;18.67;6.55;;;;;;;;;;10438225;28;20230;-76
2023/12/05 14:40:39;;;;;;;13.57;6.90;;;;;;;;;;10436099;28;20088;-76
2023/12/05 14:45:40;;;;;;;17.13;6.57;;;;;;;;;;10441462;28;20024;-77
2023/12/05 14:50:40;;;;;;;16.42;6.45;;;;;;;;;;10437701;28;20012;-77
2023/12/05 14:55:41;;;;;;;11.60;6.40;;;;;;;;;;10442861;28;20024;-76
2023/12/05 15:00:41;;;;;;;13.00;6.82;;;;;;;;;;10434752;28;20172;-77
2023/12/05 15:05:41;;;;;;;14.45;6.25;;;;;;;;;;10438415;28;20040;-76
2023/12/05 15:10:42;;;;;;;16.05;7.07;;;;;;;;;;10442283;28;20017;-77
2023/12/05 15:15:42;;;;;;;10.23;5.60;;;;;;;;;;10438969;28;20038;-78
2023/12/05 15:20:42;;;;;;;13.63;7.05;;;;;;;;;;10429531;28;20111;-77
2023/12/05 15:25:44;;;;;;;17.48;8.75;;;;;;;;;;10436236;28;20397;-80
2023/12/05 15:30:44;;;;;;;18.05;8.07;;;;;;;;;;10443545;28;20031;-78
2023/12/05 15:35:44;;;;;;;18.03;8.47;;;;;;;;;;10434767;28;20041;-78
2023/12/05 15:40:44;;;;;;;23.48;9.07;;;;;;;;;;10440021;28;20026;-78
2023/12/05 15:45:45;;;;;;;19.88;9.85;;;;;;;;;;10462066;28;20017;-77
2023/12/05 15:50:45;;;;;;;29.58;11.52;;;;;;;;;;10446329;28;20259;-76
2023/12/05 15:55:45;;;;;;;22.23;10.02;;;;;;;;;;10441454;28;20048;-76
2023/12/05 16:00:45;;;;;;;22.67;10.02;;;;;;;;;;10443457;28;20315;-77
2023/12/05 16:05:46;;;;;;;25.13;13.30;;;;;;;;;;10440354;28;20330;-76
2023/12/05 16:10:46;;;;;;;21.35;11.10;;;;;;;;;;10441355;28;20097;-76
2023/12/05 16:15:46;;;;;;;25.52;10.30;;;;;;;;;;10446748;28;20044;-76
2023/12/05 16:20:48;;;;;;;18.70;9.03;;;;;;;;;;10437887;28;20033;-78
2023/12/05 16:25:48;;;;;;;15.80;7.93;;;;;;;;;;10445494;28;20021;-78
2023/12/05 16:30:49;;;;;;;14.82;8.23;;;;;;;;;;10441673;28;20319;-78
2023/12/05 16:35:49;;;;;;;18.63;8.13;;;;;;;;;;10433813;28;20128;-78
2023/12/05 16:40:49;;;;;;;17.27;8.85;;;;;;;;;;10447258;28;20315;-77
2023/12/05 16:45:50;;;;;;;22.25;10.80;;;;;;;;;;10465189;28;20370;-75
2023/12/05 16:50:52;;;;;;;17.15;9.02;;;;;;;;;;10443405;28;20225;-83
2023/12/05 16:55:52;;;;;;;18.95;9.13;;;;;;;;;;10456405;28;20318;-80
2023/12/05 17:00:52;;;;;;;22.85;10.60;;;;;;;;;;10439418;28;20045;-81
2023/12/05 17:05:53;;;;;;;21.88;9.80;;;;;;;;;;10459923;28;20497;-83
2023/12/05 17:10:53;;;;;;;20.85;9.52;;;;;;;;;;10450598;28;20028;-76
2023/12/05 17:15:53;;;;;;;24.75;10.38;;;;;;;;;;10439794;28;20064;-80
2023/12/05 17:20:53;;;;;;;22.73;10.88;;;;;;;;;;10433172;28;20288;-83
2023/12/05 17:25:57;;;;;;;23.83;10.70;;;;;;;;;;10442378;28;20021;-78
2023/12/05 17:30:57;;;;;;;31.70;12.40;;;;;;;;;;10434284;28;20207;-79
2023/12/05 17:35:57;;;;;;;24.42;10.23;;;;;;;;;;10442358;28;20104;-80
2023/12/05 17:40:58;;;;;;;23.63;10.88;;;;;;;;;;10439742;28;20059;-83
2023/12/05 17:45:58;;;;;;;27.00;11.35;;;;;;;;;;10439241;28;20322;-78
2023/12/05 17:50:58;;;;;;;22.98;10.88;;;;;;;;;;10439984;28;20020;-78
2023/12/05 17:55:58;;;;;;;22.52;10.00;;;;;;;;;;10431132;28;20021;-79
2023/12/05 18:00:59;;;;;;;18.25;8.60;;;;;;;;;;10435678;28;20021;-77
2023/12/05 18:05:59;;;;;;;22.55;8.88;;;;;;;;;;10432235;28;20013;-78
2023/12/05 18:10:59;;;;;;;20.95;9.18;;;;;;;;;;10435800;28;20017;-76
2023/12/05 18:15:59;;;;;;;14.90;8.07;;;;;;;;;;10433237;28;20025;-76
2023/12/05 18:20:59;;;;;;;23.47;9.97;;;;;;;;;;10430013;28;20242;-80
2023/12/05 18:26:00;;;;;;;19.42;8.98;;;;;;;;;;10427477;28;20027;-77
2023/12/05 18:31:00;;;;;;;15.48;7.88;;;;;;;;;;10426600;28;20029;-78
2023/12/05 18:36:00;;;;;;;14.70;8.07;;;;;;;;;;10435987;28;20021;-75
2023/12/05 18:41:01;;;;;;;14.13;7.15;;;;;;;;;;10429050;28;20036;-80
2023/12/05 18:46:03;;;;;;;16.10;7.13;;;;;;;;;;10441758;28;20029;-77
2023/12/05 18:51:03;;;;;;;12.98;7.65;;;;;;;;;;10431559;28;20439;-79
2023/12/05 18:56:03;;;;;;;19.53;7.70;;;;;;;;;;10427562;28;20028;-81
2023/12/05 19:01:04;;;;;;;16.38;8.18;;;;;;;;;;10436647;28;20337;-80
2023/12/05 19:06:06;;;;;;;21.35;8.63;;;;;;;;;;10439718;28;20027;-82
2023/12/05 19:11:06;;;;;;;13.55;7.80;;;;;;;;;;10440397;28;20040;-82
2023/12/05 19:16:07;;;;;;;14.20;7.97;;;;;;;;;;10435702;28;20032;-79
2023/12/05 19:21:07;;;;;;;19.05;8.10;;;;;;;;;;10445032;28;20028;-84
2023/12/05 19:26:07;;;;;;;18.17;9.02;;;;;;;;;;10447225;28;20091;-79
2023/12/05 19:31:08;;;;;;;17.43;7.53;;;;;;;;;;10443494;28;20068;-83
2023/12/05 19:36:08;;;;;;;15.38;6.35;;;;;;;;;;10461008;28;20021;-85
2023/12/05 19:41:08;;;;;;;12.77;7.00;;;;;;;;;;10446123;28;20013;-71
2023/12/05 19:46:09;;;;;;;20.77;7.47;;;;;;;;;;10444214;28;20044;-75
2023/12/05 19:51:09;;;;;;;19.52;8.23;;;;;;;;;;10441826;28;20027;-78
2023/12/05 19:56:11;;;;;;;15.32;7.15;;;;;;;;;;10446496;28;20021;-82
2023/12/05 20:01:12;;;;;;;10.82;6.13;;;;;;;;;;10440615;28;20021;-84
2023/12/05 20:06:12;;;;;;;11.60;6.60;;;;;;;;;;10443265;28;20259;-84
2023/12/05 20:11:14;;;;;;;14.15;6.45;;;;;;;;;;10441586;28;20072;-83
2023/12/05 20:16:15;;;;;;;13.88;6.25;;;;;;;;;;10443508;28;20033;-84
2023/12/05 20:21:15;;;;;;;9.43;5.47;;;;;;;;;;10456728;28;20052;-78
2023/12/05 20:26:15;;;;;;;12.88;5.32;;;;;;;;;;10447516;28;20401;-76
2023/12/05 20:31:16;;;;;;;9.30;4.43;;;;;;;;;;10442572;28;20256;-80
2023/12/05 20:36:16;;;;;;;8.45;4.50;;;;;;;;;;10439208;28;20307;-80
2023/12/05 20:41:17;;;;;;;11.88;4.57;;;;;;;;;;10444527;28;20233;-79
2023/12/05 20:46:17;;;;;;;11.25;5.53;;;;;;;;;;10440217;28;20110;-82
2023/12/05 20:51:17;;;;;;;10.93;5.18;;;;;;;;;;10442753;28;20017;-84
2023/12/05 20:56:17;;;;;;;9.95;4.47;;;;;;;;;;10437180;28;20017;-80
2023/12/05 21:01:18;;;;;;;8.55;4.55;;;;;;;;;;10444239;28;20214;-82
2023/12/05 21:06:19;;;;;;;7.70;4.18;;;;;;;;;;10442940;28;20035;-84
2023/12/05 21:11:19;;;;;;;7.80;4.07;;;;;;;;;;10435468;28;20050;-80
2023/12/05 21:16:20;;;;;;;4.00;2.43;;;;;;;;;;10431295;28;20029;-77
2023/12/05 21:21:21;;;;;;;7.72;3.72;;;;;;;;;;10437602;28;20009;-77
2023/12/05 21:26:21;;;;;;;4.97;3.08;;;;;;;;;;10435950;28;20335;-77
2023/12/05 21:31:21;;;;;;;5.25;2.88;;;;;;;;;;10433396;28;20395;-75
2023/12/05 21:36:22;;;;;;;4.50;2.30;;;;;;;;;;10439715;28;20017;-77
2023/12/05 21:41:22;;;;;;;4.95;3.17;;;;;;;;;;10437976;28;20258;-76
2023/12/05 21:46:23;;;;;;;10.35;3.40;;;;;;;;;;10439716;28;20017;-74
2023/12/05 21:51:24;;;;;;;6.43;2.90;;;;;;;;;;10432457;28;20009;-76
2023/12/05 21:56:24;;;;;;;5.13;3.65;;;;;;;;;;10435390;28;20338;-78
2023/12/05 22:01:25;;;;;;;4.53;3.08;;;;;;;;;;10456507;28;20048;-73
2023/12/05 22:06:25;;;;;;;5.18;2.60;;;;;;;;;;10458739;28;20028;-72
2023/12/05 22:11:25;;;;;;;8.02;3.05;;;;;;;;;;10458462;28;20013;-73
2023/12/05 22:16:25;;;;;;;6.38;3.97;;;;;;;;;;10459252;28;20111;-73
2023/12/05 22:21:25;;;;;;;12.02;4.35;;;;;;;;;;10458377;28;20043;-72
2023/12/05 22:26:26;;;;;;;9.27;4.40;;;;;;;;;;10449546;28;20029;-74
2023/12/05 22:31:29;;;;;;;11.18;4.93;;;;;;;;;;10455208;28;20264;-73
2023/12/05 22:36:29;;;;;;;8.75;4.40;;;;;;;;;;10451733;28;20029;-75
2023/12/05 22:41:33;;;;;;;11.07;5.47;;;;;;;;;;10445197;28;20203;-75
2023/12/05 22:46:33;;;;;;;11.35;5.85;;;;;;;;;;10449676;28;20067;-76
2023/12/05 22:51:34;;;;;;;14.55;6.32;;;;;;;;;;10450801;28;20013;-76
2023/12/05 22:56:34;;;;;;;12.77;6.70;;;;;;;;;;10450984;28;20032;-75
2023/12/05 23:01:34;;;;;;;14.52;6.95;;;;;;;;;;10453829;28;20243;-74
2023/12/05 23:06:34;;;;;;;15.63;7.00;;;;;;;;;;10449708;28;20234;-75
2023/12/05 23:11:34;;;;;;;14.60;6.50;;;;;;;;;;10447076;28;20039;-75
2023/12/05 23:16:35;;;;;;;10.27;5.07;;;;;;;;;;10450270;28;20305;-75
2023/12/05 23:21:35;;;;;;;12.60;6.18;;;;;;;;;;10448132;28;20028;-76
2023/12/05 23:26:35;;;;;;;13.85;6.28;;;;;;;;;;10445413;28;20025;-75
2023/12/05 23:31:35;;;;;;;8.57;4.95;;;;;;;;;;10449198;28;20017;-75
2023/12/05 23:36:36;;;;;;;11.07;5.65;;;;;;;;;;10453974;28;20315;-75
2023/12/05 23:41:36;;;;;;;17.75;8.75;;;;;;;;;;10473040;28;20021;-75
2023/12/05 23:46:36;;;;;;;12.43;6.93;;;;;;;;;;10456587;28;20017;-75
2023/12/05 23:51:36;;;;;;;12.75;6.65;;;;;;;;;;10456968;28;20318;-74
2023/12/05 23:56:37;;;;;;;12.55;6.13;;;;;;;;;;10472067;28;20598;-75
